Time;durP1;ratioP1;P1;durP2;ratioP2;P2;SDS_P1;SDS_P2;PMS_P1;PMS_P2;Temp;Humidity;BMP_temperature;BMP_pressure;BME280_temperature;BME280_humidity;BME280_pressure;Samples;Min_cycle;Max_cycle;Signal;HPM_P1;HPM_P2
2020/12/17 00:01:04;;;;;;;;;;;3.90;99.90;;;;;;5064036;28;19977;-70
2020/12/17 00:03:29;;;;;;;;;;;3.90;99.90;;;;;;5065118;28;20624;-70
2020/12/17 00:05:55;;;;;;;;;;;3.80;99.90;;;;;;5066706;28;20711;-69
2020/12/17 00:08:20;;;;;;;;;;;3.60;99.90;;;;;;5073536;28;19916;-70
2020/12/17 00:10:46;;;;;;;;;;;;;;;;;;5065887;28;20325;-70
2020/12/17 00:13:12;;;;;;;;;;;3.80;99.90;;;;;;5065843;28;19935;-70
2020/12/17 00:15:37;;;;;;;;;;;4.00;99.90;;;;;;5065598;28;19919;-70
2020/12/17 00:18:03;;;;;;;;;;;4.10;99.90;;;;;;5065954;28;19912;-70
2020/12/17 00:20:28;;;;;;;;;;;4.20;99.90;;;;;;5066160;28;19939;-70
2020/12/17 00:22:54;;;;;;;;;;;4.40;99.90;;;;;;5065988;28;20487;-69
2020/12/17 00:25:19;;;;;;;;;;;4.40;99.90;;;;;;5066504;28;19913;-71
2020/12/17 00:27:45;;;;;;;;;;;4.50;99.90;;;;;;5064555;28;19924;-70
2020/12/17 00:30:13;;;;;;;;;;;4.50;99.90;;;;;;5066806;28;19923;-70
2020/12/17 00:32:40;;;;;;;;;;;4.60;99.90;;;;;;5064331;28;20365;-68
2020/12/17 00:35:06;;;;;;;;;;;4.50;99.90;;;;;;5064268;28;19961;-70
2020/12/17 00:37:32;;;;;;;;;;;4.50;99.90;;;;;;5065587;28;20403;-71
2020/12/17 00:39:58;;;;;;;;;;;4.50;99.90;;;;;;5065424;28;19916;-70
2020/12/17 00:42:23;;;;;;;;;;;4.20;99.90;;;;;;5066144;28;19925;-70
2020/12/17 00:44:49;;;;;;;;;;;4.10;99.90;;;;;;5066137;28;20023;-70
2020/12/17 00:47:15;;;;;;;;;;;4.10;99.90;;;;;;5063958;28;19936;-70
2020/12/17 00:49:41;;;;;;;;;;;4.10;99.90;;;;;;5066350;28;20061;-71
2020/12/17 00:52:06;;;;;;;;;;;4.20;99.90;;;;;;5065710;28;20536;-71
2020/12/17 00:54:32;;;;;;;;;;;4.20;99.90;;;;;;5066011;28;19924;-70
2020/12/17 00:56:57;;;;;;;;;;;4.40;99.90;;;;;;5064458;28;19945;-70
2020/12/17 00:59:23;;;;;;;;;;;4.40;99.90;;;;;;5064535;28;20811;-68
2020/12/17 01:01:48;;;;;;;;;;;4.40;99.90;;;;;;5064188;28;19978;-71
2020/12/17 01:04:14;;;;;;;;;;;4.50;99.90;;;;;;5065703;28;19921;-70
2020/12/17 01:06:40;;;;;;;;;;;4.50;99.90;;;;;;5063938;28;19912;-69
2020/12/17 01:09:06;;;;;;;;;;;4.60;99.90;;;;;;5071290;28;19934;-71
2020/12/17 01:11:31;;;;;;;;;;;4.60;99.90;;;;;;5085269;28;19919;-67
2020/12/17 01:13:57;;;;;;;;;;;4.60;99.90;;;;;;5074624;28;19920;-71
2020/12/17 01:16:23;;;;;;;;;;;4.60;99.90;;;;;;5063101;28;19919;-70
2020/12/17 01:18:49;;;;;;;;;;;4.60;99.90;;;;;;5068567;28;19952;-68
2020/12/17 01:21:15;;;;;;;;;;;4.50;99.90;;;;;;5069089;28;20001;-69
2020/12/17 01:23:41;;;;;;;;;;;4.40;99.90;;;;;;5069574;28;19912;-69
2020/12/17 01:26:08;;;;;;;;;;;4.30;99.90;;;;;;5069192;28;19912;-69
2020/12/17 01:28:34;;;;;;;;;;;4.40;99.90;;;;;;5068329;28;20150;-71
2020/12/17 01:31:04;;;;;;;;;;;4.50;99.90;;;;;;5068275;28;19966;-69
2020/12/17 01:33:29;;;;;;;;;;;4.50;99.90;;;;;;5069307;28;19920;-71
2020/12/17 01:35:55;;;;;;;;;;;4.60;99.90;;;;;;5070422;28;20006;-70
2020/12/17 01:38:20;;;;;;;;;;;4.60;99.90;;;;;;5069483;28;20229;-70
2020/12/17 01:40:46;;;;;;;;;;;4.60;99.90;;;;;;5069705;28;19928;-70
2020/12/17 01:43:11;;;;;;;;;;;4.60;99.90;;;;;;5070275;28;19920;-71
2020/12/17 01:45:37;;;;;;;;;;;4.60;99.90;;;;;;5069772;28;19957;-70
2020/12/17 01:48:02;;;;;;;;;;;4.60;99.90;;;;;;5069293;28;19928;-70
2020/12/17 01:50:28;;;;;;;;;;;4.60;99.90;;;;;;5069690;28;19958;-70
2020/12/17 01:52:54;;;;;;;;;;;4.70;99.90;;;;;;5069918;28;19927;-71
2020/12/17 01:55:20;;;;;;;;;;;4.70;99.90;;;;;;5069696;28;19924;-71
2020/12/17 01:57:46;;;;;;;;;;;4.70;99.90;;;;;;5069075;28;19916;-69
2020/12/17 02:00:12;;;;;;;;;;;4.70;99.90;;;;;;5069086;28;19916;-69
2020/12/17 02:02:39;;;;;;;;;;;4.70;99.90;;;;;;5068345;28;19966;-70
2020/12/17 02:05:06;;;;;;;;;;;4.70;99.90;;;;;;5070446;28;19916;-69
2020/12/17 02:07:31;;;;;;;;;;;4.80;99.90;;;;;;5069009;28;20399;-70
2020/12/17 02:09:57;;;;;;;;;;;4.80;99.90;;;;;;5069295;28;19916;-69
2020/12/17 02:12:22;;;;;;;;;;;4.80;99.90;;;;;;5085975;28;19916;-71
2020/12/17 02:14:48;;;;;;;;;;;4.80;99.90;;;;;;5069437;28;19919;-70
2020/12/17 02:17:13;;;;;;;;;;;4.80;99.90;;;;;;5067364;28;19963;-70
2020/12/17 02:19:39;;;;;;;;;;;4.70;99.90;;;;;;5069005;28;19916;-67
2020/12/17 02:22:04;;;;;;;;;;;4.70;99.90;;;;;;5068880;28;19916;-69
2020/12/17 02:24:30;;;;;;;;;;;4.60;99.90;;;;;;5069920;28;19919;-71
2020/12/17 02:26:56;;;;;;;;;;;4.50;99.90;;;;;;5068739;28;19924;-70
2020/12/17 02:29:21;;;;;;;;;;;4.30;99.90;;;;;;5068427;28;19933;-70
2020/12/17 02:31:47;;;;;;;;;;;4.20;99.90;;;;;;5067244;28;20369;-69
2020/12/17 02:34:13;;;;;;;;;;;4.20;99.90;;;;;;5069686;28;20007;-70
2020/12/17 02:36:38;;;;;;;;;;;4.30;99.90;;;;;;5068826;28;20479;-70
2020/12/17 02:39:04;;;;;;;;;;;4.40;99.90;;;;;;5068337;28;19917;-69
2020/12/17 02:41:29;;;;;;;;;;;4.30;99.90;;;;;;5068048;28;19913;-70
2020/12/17 02:43:55;;;;;;;;;;;4.30;99.90;;;;;;5068300;28;20334;-67
2020/12/17 02:46:21;;;;;;;;;;;4.40;99.90;;;;;;5067222;28;19927;-71
2020/12/17 02:48:50;;;;;;;;;;;4.40;99.90;;;;;;5068686;28;19912;-70
2020/12/17 02:51:16;;;;;;;;;;;4.40;99.90;;;;;;5068106;28;19923;-70
2020/12/17 02:53:41;;;;;;;;;;;4.30;99.90;;;;;;5069202;28;19917;-69
2020/12/17 02:56:07;;;;;;;;;;;4.40;99.90;;;;;;5068917;28;19916;-69
2020/12/17 02:58:32;;;;;;;;;;;4.30;99.90;;;;;;5068821;28;19955;-68
2020/12/17 03:00:58;;;;;;;;;;;4.30;99.90;;;;;;5067389;28;20068;-66
2020/12/17 03:03:23;;;;;;;;;;;4.40;99.90;;;;;;5068226;28;20445;-71
2020/12/17 03:05:49;;;;;;;;;;;4.40;99.90;;;;;;5069159;28;19916;-71
2020/12/17 03:08:15;;;;;;;;;;;4.40;99.90;;;;;;5067781;28;20304;-70
2020/12/17 03:10:41;;;;;;;;;;;4.40;99.90;;;;;;5068366;28;20436;-69
2020/12/17 03:13:07;;;;;;;;;;;4.50;99.90;;;;;;5068153;28;19921;-67
2020/12/17 03:15:32;;;;;;;;;;;4.60;99.90;;;;;;5067593;28;20335;-70
2020/12/17 03:17:58;;;;;;;;;;;4.50;99.90;;;;;;5066203;28;19916;-72
2020/12/17 03:20:23;;;;;;;;;;;4.40;99.90;;;;;;5067681;28;20345;-70
2020/12/17 03:22:49;;;;;;;;;;;4.40;99.90;;;;;;5067950;28;19927;-70
2020/12/17 03:25:14;;;;;;;;;;;4.30;99.90;;;;;;5068149;28;19966;-67
2020/12/17 03:27:40;;;;;;;;;;;4.30;99.90;;;;;;5066695;28;19956;-69
2020/12/17 03:30:06;;;;;;;;;;;4.30;99.90;;;;;;5067405;28;19916;-70
2020/12/17 03:32:32;;;;;;;;;;;4.30;99.90;;;;;;5065885;28;19920;-69
2020/12/17 03:34:57;;;;;;;;;;;4.20;99.90;;;;;;5067708;28;19913;-69
2020/12/17 03:37:23;;;;;;;;;;;4.20;99.90;;;;;;5064433;28;19913;-69
2020/12/17 03:39:48;;;;;;;;;;;4.20;99.90;;;;;;5066874;28;19917;-70
2020/12/17 03:42:14;;;;;;;;;;;4.30;99.90;;;;;;5067313;28;19924;-69
2020/12/17 03:44:39;;;;;;;;;;;4.40;99.90;;;;;;5068217;28;19921;-69
2020/12/17 03:47:05;;;;;;;;;;;4.40;99.90;;;;;;5065441;28;19920;-68
2020/12/17 03:49:30;;;;;;;;;;;4.50;99.90;;;;;;5067250;28;19916;-71
2020/12/17 03:51:56;;;;;;;;;;;4.50;99.90;;;;;;5066579;28;19932;-69
2020/12/17 03:54:21;;;;;;;;;;;4.50;99.90;;;;;;5067687;28;19912;-70
2020/12/17 03:56:47;;;;;;;;;;;4.50;99.90;;;;;;5067468;28;20464;-68
2020/12/17 03:59:12;;;;;;;;;;;4.40;99.90;;;;;;5067135;28;19924;-72
2020/12/17 04:01:38;;;;;;;;;;;4.40;99.90;;;;;;5065316;28;20050;-71
2020/12/17 04:04:03;;;;;;;;;;;4.30;99.90;;;;;;5068185;28;19925;-70
2020/12/17 04:06:29;;;;;;;;;;;4.40;99.90;;;;;;5076125;28;19917;-71
2020/12/17 04:08:54;;;;;;;;;;;4.30;99.90;;;;;;5078194;28;20026;-71
2020/12/17 04:11:19;;;;;;;;;;;4.30;99.90;;;;;;5073475;28;19920;-70
2020/12/17 04:13:45;;;;;;;;;;;4.20;99.90;;;;;;5075509;28;20347;-70
2020/12/17 04:16:10;;;;;;;;;;;4.00;99.90;;;;;;5075982;28;19916;-68
2020/12/17 04:18:36;;;;;;;;;;;4.00;99.90;;;;;;5076378;28;20058;-69
2020/12/17 04:21:01;;;;;;;;;;;4.00;99.90;;;;;;5072487;28;19912;-70
2020/12/17 04:23:27;;;;;;;;;;;4.10;99.90;;;;;;5074940;28;19913;-70
2020/12/17 04:25:53;;;;;;;;;;;4.10;99.90;;;;;;5075690;28;19916;-69
2020/12/17 04:28:18;;;;;;;;;;;4.00;99.90;;;;;;5074192;28;19916;-70
2020/12/17 04:30:44;;;;;;;;;;;3.90;99.90;;;;;;5075587;28;19971;-69
2020/12/17 04:33:09;;;;;;;;;;;3.90;99.90;;;;;;5074056;28;20448;-69
2020/12/17 04:35:35;;;;;;;;;;;3.90;99.90;;;;;;5074045;28;19920;-70
2020/12/17 04:38:00;;;;;;;;;;;3.90;99.90;;;;;;5074640;28;19916;-70
2020/12/17 04:40:25;;;;;;;;;;;4.00;99.90;;;;;;5075870;28;20296;-68
2020/12/17 04:42:51;;;;;;;;;;;4.00;99.90;;;;;;5077474;28;19920;-69
2020/12/17 04:45:18;;;;;;;;;;;4.00;99.90;;;;;;5074521;28;20036;-70
2020/12/17 04:47:47;;;;;;;;;;;4.10;99.90;;;;;;5076511;28;19919;-68
2020/12/17 04:50:14;;;;;;;;;;;4.10;99.90;;;;;;5075481;28;20604;-70
2020/12/17 04:52:40;;;;;;;;;;;4.20;99.90;;;;;;5077202;28;19919;-69
2020/12/17 04:55:06;;;;;;;;;;;4.20;99.90;;;;;;5072200;28;19924;-70
2020/12/17 04:57:32;;;;;;;;;;;4.10;99.90;;;;;;5069578;28;19923;-68
2020/12/17 04:59:58;;;;;;;;;;;4.00;99.90;;;;;;5069337;28;19917;-70
2020/12/17 05:02:24;;;;;;;;;;;4.00;99.90;;;;;;5069275;28;19998;-70
2020/12/17 05:04:50;;;;;;;;;;;4.10;99.90;;;;;;5071421;28;19917;-69
2020/12/17 05:07:20;;;;;;;;;;;4.10;99.90;;;;;;5069563;28;19938;-66
2020/12/17 05:09:46;;;;;;;;;;;4.10;99.90;;;;;;5069817;28;19920;-68
2020/12/17 05:12:12;;;;;;;;;;;4.10;99.90;;;;;;5069697;28;19965;-69
2020/12/17 05:14:38;;;;;;;;;;;4.10;99.90;;;;;;5070230;28;19919;-69
2020/12/17 05:17:04;;;;;;;;;;;4.10;99.90;;;;;;5069249;28;19916;-72
2020/12/17 05:19:29;;;;;;;;;;;4.10;99.90;;;;;;5070235;28;20242;-71
2020/12/17 05:21:56;;;;;;;;;;;4.20;99.90;;;;;;5070053;28;19963;-69
2020/12/17 05:24:22;;;;;;;;;;;4.20;99.90;;;;;;5070535;28;19954;-69
2020/12/17 05:26:51;;;;;;;;;;;4.20;99.90;;;;;;5069955;28;19919;-71
2020/12/17 05:29:17;;;;;;;;;;;4.20;99.90;;;;;;5069373;28;19912;-68
2020/12/17 05:31:43;;;;;;;;;;;4.20;99.90;;;;;;5068283;28;19912;-68
2020/12/17 05:34:09;;;;;;;;;;;4.20;99.90;;;;;;5070679;28;20467;-70
2020/12/17 05:36:35;;;;;;;;;;;4.10;99.90;;;;;;5070343;28;19932;-68
2020/12/17 05:39:04;;;;;;;;;;;4.10;99.90;;;;;;5069881;28;20376;-70
2020/12/17 05:41:30;;;;;;;;;;;4.10;99.90;;;;;;5063871;28;19923;-69
2020/12/17 05:44:06;;;;;;;;;;;4.10;99.90;;;;;;5070558;28;19993;-69
2020/12/17 05:46:35;;;;;;;;;;;4.10;99.90;;;;;;5070457;28;19959;-71
2020/12/17 05:49:30;;;;;;;;;;;4.00;99.90;;;;;;5069648;28;19923;-68
2020/12/17 05:52:08;;;;;;;;;;;4.00;99.90;;;;;;5063474;28;19916;-69
2020/12/17 05:54:33;;;;;;;;;;;3.90;99.90;;;;;;5069822;28;19916;-69
2020/12/17 05:57:10;;;;;;;;;;;4.00;99.90;;;;;;5068720;28;19927;-70
2020/12/17 05:59:35;;;;;;;;;;;4.00;99.90;;;;;;5065323;28;19920;-70
2020/12/17 06:02:20;;;;;;;;;;;4.10;99.90;;;;;;5068331;28;19924;-69
2020/12/17 06:04:59;;;;;;;;;;;4.10;99.90;;;;;;5069414;28;19916;-69
2020/12/17 06:07:29;;;;;;;;;;;4.10;99.90;;;;;;5068456;28;20376;-70
2020/12/17 06:09:58;;;;;;;;;;;4.10;99.90;;;;;;5069184;28;20353;-71
2020/12/17 06:12:24;;;;;;;;;;;4.10;99.90;;;;;;5066764;28;19931;-69
2020/12/17 06:14:50;;;;;;;;;;;4.20;99.90;;;;;;5072645;28;20363;-71
2020/12/17 06:17:20;;;;;;;;;;;4.10;99.90;;;;;;5067219;28;19927;-67
2020/12/17 06:19:46;;;;;;;;;;;4.10;99.90;;;;;;5069219;28;19935;-69
2020/12/17 06:22:12;;;;;;;;;;;4.10;99.90;;;;;;5069379;28;19912;-70
2020/12/17 06:24:38;;;;;;;;;;;4.00;99.90;;;;;;5069570;28;19912;-71
2020/12/17 06:27:08;;;;;;;;;;;4.00;99.90;;;;;;5067347;28;19912;-71
2020/12/17 06:29:35;;;;;;;;;;;4.00;99.90;;;;;;5066219;28;19993;-70
2020/12/17 06:32:02;;;;;;;;;;;4.00;99.90;;;;;;5067273;28;19916;-70
2020/12/17 06:34:36;;;;;;;;;;;4.00;99.90;;;;;;5069693;28;19913;-71
2020/12/17 06:37:02;;;;;;;;;;;4.10;99.90;;;;;;5069148;28;20024;-71
2020/12/17 06:39:28;;;;;;;;;;;4.10;99.90;;;;;;5067971;28;20069;-70
2020/12/17 06:41:53;;;;;;;;;;;4.00;99.90;;;;;;5068535;28;20010;-70
2020/12/17 06:44:26;;;;;;;;;;;4.00;99.90;;;;;;5069039;28;19930;-70
2020/12/17 06:46:52;;;;;;;;;;;4.00;99.90;;;;;;5067425;28;19920;-70
2020/12/17 06:49:22;;;;;;;;;;;4.00;99.90;;;;;;5068814;28;20381;-71
2020/12/17 06:51:57;;;;;;;;;;;4.00;99.90;;;;;;5067820;28;19924;-71
2020/12/17 06:54:23;;;;;;;;;;;4.10;99.90;;;;;;5068927;28;20030;-70
2020/12/17 06:57:08;;;;;;;;;;;4.10;99.90;;;;;;5068626;28;19913;-71
2020/12/17 06:59:34;;;;;;;;;;;4.10;99.90;;;;;;5067573;28;19955;-69
2020/12/17 07:01:59;;;;;;;;;;;4.10;99.90;;;;;;5067374;28;19970;-71
2020/12/17 07:04:39;;;;;;;;;;;4.10;99.90;;;;;;5068896;28;20000;-68
2020/12/17 07:07:08;;;;;;;;;;;4.10;99.90;;;;;;5068429;28;19927;-67
2020/12/17 07:09:33;;;;;;;;;;;4.20;99.90;;;;;;5068123;28;19981;-70
2020/12/17 07:11:59;;;;;;;;;;;4.20;99.90;;;;;;5067720;28;20655;-70
2020/12/17 07:14:24;;;;;;;;;;;4.30;99.90;;;;;;5067994;28;19978;-71
2020/12/17 07:16:51;;;;;;;;;;;4.30;99.90;;;;;;5070589;28;19991;-70
2020/12/17 07:19:24;;;;;;;;;;;4.30;99.90;;;;;;5067853;28;19916;-70
2020/12/17 07:22:13;;;;;;;;;;;4.20;99.90;;;;;;5066832;28;19965;-68
2020/12/17 07:24:39;;;;;;;;;;;4.20;99.90;;;;;;5065030;28;20322;-70
2020/12/17 07:27:07;;;;;;;;;;;4.20;99.90;;;;;;5067349;28;19969;-66
2020/12/17 07:29:39;;;;;;;;;;;4.30;99.90;;;;;;5067373;28;19937;-68
2020/12/17 07:32:24;;;;;;;;;;;4.30;99.90;;;;;;5066878;28;19927;-70
2020/12/17 07:34:50;;;;;;;;;;;4.40;99.90;;;;;;5068393;28;20725;-70
2020/12/17 07:37:35;;;;;;;;;;;4.40;99.90;;;;;;5067662;28;19917;-67
2020/12/17 07:40:05;;;;;;;;;;;4.50;99.90;;;;;;5060752;28;19920;-68
2020/12/17 07:42:31;;;;;;;;;;;4.50;99.90;;;;;;5068073;28;19927;-69
2020/12/17 07:44:56;;;;;;;;;;;4.60;99.90;;;;;;5068087;28;19917;-70
2020/12/17 07:47:22;;;;;;;;;;;4.60;99.90;;;;;;5065880;28;19912;-68
2020/12/17 07:49:47;;;;;;;;;;;4.70;99.90;;;;;;5066578;28;19930;-69
2020/12/17 07:52:29;;;;;;;;;;;4.70;99.90;;;;;;5066843;28;19974;-71
2020/12/17 07:54:54;;;;;;;;;;;4.70;99.90;;;;;;5062565;28;19925;-69
2020/12/17 07:57:19;;;;;;;;;;;4.70;99.90;;;;;;5065925;28;19950;-70
2020/12/17 07:59:45;;;;;;;;;;;4.70;99.90;;;;;;5066960;28;19920;-69
2020/12/17 08:02:11;;;;;;;;;;;4.70;99.90;;;;;;5065914;28;20070;-70
2020/12/17 08:04:36;;;;;;;;;;;4.70;99.90;;;;;;5067580;28;19919;-71
2020/12/17 08:07:05;;;;;;;;;;;4.70;99.90;;;;;;5067271;28;20056;-69
2020/12/17 08:09:31;;;;;;;;;;;4.70;99.90;;;;;;5066944;28;19946;-70
2020/12/17 08:11:56;;;;;;;;;;;4.80;99.90;;;;;;5065826;28;20012;-70
2020/12/17 08:14:23;;;;;;;;;;;4.80;99.90;;;;;;5067620;28;19916;-71
2020/12/17 08:16:48;;;;;;;;;;;4.90;99.90;;;;;;5065336;28;20016;-68
2020/12/17 08:19:14;;;;;;;;;;;4.90;99.90;;;;;;5066453;28;20373;-69
2020/12/17 08:21:41;;;;;;;;;;;4.80;99.90;;;;;;5066000;28;19917;-71
2020/12/17 08:24:08;;;;;;;;;;;4.90;99.90;;;;;;5066678;28;19919;-70
2020/12/17 08:26:34;;;;;;;;;;;4.70;99.90;;;;;;5056793;28;20181;-71
2020/12/17 08:28:59;;;;;;;;;;;4.70;99.90;;;;;;5066373;28;20521;-71
2020/12/17 08:31:29;;;;;;;;;;;4.70;99.90;;;;;;5063923;28;19916;-69
2020/12/17 08:33:56;;;;;;;;;;;4.70;99.90;;;;;;5066635;28;19936;-71
2020/12/17 08:36:26;;;;;;;;;;;4.70;99.90;;;;;;5066901;28;20011;-72
2020/12/17 08:38:55;;;;;;;;;;;4.80;99.90;;;;;;5067039;28;20004;-71
2020/12/17 08:41:24;;;;;;;;;;;4.80;99.90;;;;;;5062734;28;19951;-70
2020/12/17 08:43:51;;;;;;;;;;;4.80;99.90;;;;;;5066155;28;20382;-69
2020/12/17 08:46:17;;;;;;;;;;;4.80;99.90;;;;;;5065935;28;19912;-71
2020/12/17 08:48:43;;;;;;;;;;;4.80;99.90;;;;;;5066204;28;20065;-71
2020/12/17 08:51:14;;;;;;;;;;;4.90;99.90;;;;;;5065930;28;19920;-69
2020/12/17 08:53:41;;;;;;;;;;;4.90;99.90;;;;;;5066879;28;19985;-71
2020/12/17 08:56:11;;;;;;;;;;;5.00;99.90;;;;;;5065795;28;20242;-70
2020/12/17 08:58:46;;;;;;;;;;;5.00;99.90;;;;;;5059855;28;19951;-69
2020/12/17 09:01:35;;;;;;;;;;;5.00;99.90;;;;;;5065687;28;19961;-69
2020/12/17 09:04:07;;;;;;;;;;;5.00;99.90;;;;;;5063283;28;20011;-70
2020/12/17 09:06:33;;;;;;;;;;;5.00;99.90;;;;;;5066245;28;19909;-69
2020/12/17 09:09:11;;;;;;;;;;;5.00;99.90;;;;;;5066251;28;20305;-69
2020/12/17 09:11:37;;;;;;;;;;;5.10;99.90;;;;;;5050398;28;20311;-70
2020/12/17 09:14:03;;;;;;;;;;;5.10;99.90;;;;;;5053577;28;20023;-70
2020/12/17 09:16:30;;;;;;;;;;;5.20;99.90;;;;;;5063347;28;19965;-71
2020/12/17 09:18:56;;;;;;;;;;;5.30;99.90;;;;;;5066544;28;19955;-69
2020/12/17 09:21:22;;;;;;;;;;;5.50;99.90;;;;;;5076508;28;19909;-68
2020/12/17 09:23:57;;;;;;;;;;;5.60;99.90;;;;;;5064752;28;19935;-68
2020/12/17 09:26:23;;;;;;;;;;;5.70;99.90;;;;;;5063544;28;20592;-68
2020/12/17 09:28:56;;;;;;;;;;;5.70;99.90;;;;;;5062436;28;19917;-69
2020/12/17 09:31:26;;;;;;;;;;;5.80;99.90;;;;;;5055086;28;19963;-69
2020/12/17 09:34:09;;;;;;;;;;;5.80;99.90;;;;;;5064874;28;19920;-70
2020/12/17 09:36:35;;;;;;;;;;;5.90;99.90;;;;;;5064737;28;20047;-70
2020/12/17 09:39:02;;;;;;;;;;;5.90;99.90;;;;;;5066395;28;20015;-70
2020/12/17 09:41:28;;;;;;;;;;;6.00;99.90;;;;;;5068342;28;19951;-70
2020/12/17 09:43:54;;;;;;;;;;;6.10;99.90;;;;;;5068779;28;20405;-69
2020/12/17 09:46:19;;;;;;;;;;;6.20;99.90;;;;;;5067018;28;19913;-70
2020/12/17 09:48:45;;;;;;;;;;;6.30;99.90;;;;;;5066706;28;19955;-69
2020/12/17 09:51:12;;;;;;;;;;;6.40;99.90;;;;;;5066806;28;20309;-70
2020/12/17 09:53:42;;;;;;;;;;;6.30;99.90;;;;;;5067444;28;19923;-68
2020/12/17 09:56:09;;;;;;;;;;;6.20;99.90;;;;;;5066863;28;20037;-68
2020/12/17 09:58:34;;;;;;;;;;;6.20;99.90;;;;;;5067594;28;20369;-69
2020/12/17 10:01:00;;;;;;;;;;;6.30;99.90;;;;;;5074383;28;19923;-69
2020/12/17 10:03:25;;;;;;;;;;;6.50;99.90;;;;;;5067028;28;19923;-69
2020/12/17 10:05:51;;;;;;;;;;;6.70;99.90;;;;;;5068333;28;19917;-69
2020/12/17 10:08:17;;;;;;;;;;;6.80;99.90;;;;;;5067482;28;20003;-69
2020/12/17 10:10:42;;;;;;;;;;;6.90;99.90;;;;;;5064387;28;19913;-70
2020/12/17 10:13:09;;;;;;;;;;;6.80;99.90;;;;;;5081156;28;19955;-68
2020/12/17 10:15:35;;;;;;;;;;;6.80;99.90;;;;;;5088144;28;19912;-69
2020/12/17 10:18:01;;;;;;;;;;;6.80;99.90;;;;;;5066715;28;19916;-69
2020/12/17 10:20:26;;;;;;;;;;;6.80;99.90;;;;;;5067678;28;19917;-69
2020/12/17 10:22:52;;;;;;;;;;;6.70;99.90;;;;;;5066658;28;19913;-69
2020/12/17 10:25:18;;;;;;;;;;;6.70;99.90;;;;;;5066873;28;19917;-68
2020/12/17 10:27:44;;;;;;;;;;;6.70;99.90;;;;;;5066024;28;19913;-68
2020/12/17 10:30:10;;;;;;;;;;;6.70;99.90;;;;;;5066445;28;19923;-69
2020/12/17 10:32:37;;;;;;;;;;;6.70;99.90;;;;;;5066087;28;20007;-70
2020/12/17 10:35:03;;;;;;;;;;;6.80;99.90;;;;;;5067255;28;19950;-70
2020/12/17 10:37:30;;;;;;;;;;;6.70;99.90;;;;;;5066337;28;19916;-66
2020/12/17 10:39:55;;;;;;;;;;;6.70;99.90;;;;;;5067708;28;19917;-68
2020/12/17 10:42:21;;;;;;;;;;;6.80;99.90;;;;;;5066522;28;19919;-70
2020/12/17 10:44:47;;;;;;;;;;;6.90;99.90;;;;;;5067882;28;19909;-68
2020/12/17 10:47:13;;;;;;;;;;;7.00;99.90;;;;;;5064521;28;20211;-67
2020/12/17 10:49:38;;;;;;;;;;;7.10;99.90;;;;;;5057410;28;19924;-69
2020/12/17 10:52:04;;;;;;;;;;;7.10;99.90;;;;;;5086951;28;19916;-72
2020/12/17 10:54:29;;;;;;;;;;;7.00;99.90;;;;;;5080325;28;19935;-67
2020/12/17 10:56:55;;;;;;;;;;;7.00;99.90;;;;;;5065861;28;20111;-69
2020/12/17 10:59:20;;;;;;;;;;;7.00;99.90;;;;;;5066438;28;20334;-71
2020/12/17 11:01:46;;;;;;;;;;;7.00;99.90;;;;;;5065982;28;19922;-71
2020/12/17 11:04:12;;;;;;;;;;;7.00;99.90;;;;;;5066172;28;19919;-70
2020/12/17 11:06:38;;;;;;;;;;;7.10;99.90;;;;;;5072224;28;19966;-69
2020/12/17 11:09:03;;;;;;;;;;;7.10;99.90;;;;;;5066592;28;19912;-74
2020/12/17 11:11:29;;;;;;;;;;;7.20;99.90;;;;;;5067919;28;19937;-69
2020/12/17 11:13:54;;;;;;;;;;;7.20;99.90;;;;;;5074739;28;20490;-72
2020/12/17 11:16:20;;;;;;;;;;;7.20;99.90;;;;;;5070059;28;20003;-72
2020/12/17 11:18:46;;;;;;;;;;;7.30;99.90;;;;;;5065702;28;19928;-72
2020/12/17 11:21:11;;;;;;;;;;;7.30;99.90;;;;;;5077244;28;20014;-69
2020/12/17 11:23:37;;;;;;;;;;;7.30;99.90;;;;;;5074635;28;20028;-69
2020/12/17 11:26:03;;;;;;;;;;;7.20;99.90;;;;;;5073178;28;19916;-70
2020/12/17 11:28:29;;;;;;;;;;;7.20;99.90;;;;;;5076880;28;19916;-68
2020/12/17 11:30:54;;;;;;;;;;;7.10;99.90;;;;;;5075450;28;19958;-69
2020/12/17 11:33:19;;;;;;;;;;;7.00;99.90;;;;;;5074359;28;20027;-69
2020/12/17 11:35:45;;;;;;;;;;;7.00;99.90;;;;;;5075893;28;20014;-67
2020/12/17 11:38:14;;;;;;;;;;;6.90;99.90;;;;;;5075041;28;19961;-70
2020/12/17 11:40:40;;;;;;;;;;;6.90;99.90;;;;;;5075941;28;19912;-72
2020/12/17 11:43:05;;;;;;;;;;;6.80;99.90;;;;;;5073902;28;20023;-69
2020/12/17 11:45:31;;;;;;;;;;;6.90;99.90;;;;;;5073038;28;19916;-72
2020/12/17 11:47:57;;;;;;;;;;;7.00;99.90;;;;;;5072678;28;19963;-72
2020/12/17 11:50:23;;;;;;;;;;;7.00;99.90;;;;;;5079251;28;19951;-70
2020/12/17 11:52:48;;;;;;;;;;;7.00;99.90;;;;;;5072520;28;20576;-70
2020/12/17 11:55:14;;;;;;;;;;;7.10;99.90;;;;;;5075813;28;19920;-71
2020/12/17 11:57:40;;;;;;;;;;;7.00;99.90;;;;;;5077447;28;19942;-69
2020/12/17 12:00:06;;;;;;;;;;;7.00;99.90;;;;;;5074763;28;19924;-68
2020/12/17 12:02:32;;;;;;;;;;;6.90;99.90;;;;;;5070345;28;19967;-67
2020/12/17 12:04:58;;;;;;;;;;;6.90;99.90;;;;;;5077559;28;19915;-67
2020/12/17 12:07:24;;;;;;;;;;;6.80;99.90;;;;;;5074634;28;20237;-69
2020/12/17 12:09:49;;;;;;;;;;;6.70;99.90;;;;;;5075923;28;20006;-68
2020/12/17 12:12:15;;;;;;;;;;;6.60;99.90;;;;;;5078263;28;20346;-68
2020/12/17 12:14:40;;;;;;;;;;;6.70;99.90;;;;;;5073542;28;19917;-68
2020/12/17 12:17:06;;;;;;;;;;;6.70;99.90;;;;;;5063317;28;19923;-71
2020/12/17 12:19:32;;;;;;;;;;;6.80;99.90;;;;;;5066140;28;20270;-68
2020/12/17 12:21:57;;;;;;;;;;;6.80;99.90;;;;;;5065347;28;19921;-67
2020/12/17 12:24:23;;;;;;;;;;;6.90;99.90;;;;;;5065388;28;19922;-68
2020/12/17 12:26:48;;;;;;;;;;;6.90;99.90;;;;;;5064520;28;20009;-72
2020/12/17 12:29:14;;;;;;;;;;;7.00;99.90;;;;;;5065194;28;19956;-68
2020/12/17 12:31:39;;;;;;;;;;;7.10;99.90;;;;;;5061200;28;20009;-69
2020/12/17 12:34:05;;;;;;;;;;;7.10;99.90;;;;;;5065049;28;19956;-68
2020/12/17 12:36:30;;;;;;;;;;;7.10;99.90;;;;;;5065310;28;20017;-68
2020/12/17 12:38:56;;;;;;;;;;;7.20;99.90;;;;;;5064350;28;19917;-71
2020/12/17 12:41:21;;;;;;;;;;;7.20;99.90;;;;;;5064774;28;20006;-70
2020/12/17 12:43:47;;;;;;;;;;;7.20;99.90;;;;;;5065930;28;19952;-69
2020/12/17 12:46:16;;;;;;;;;;;7.30;99.90;;;;;;5063887;28;20321;-70
2020/12/17 12:48:42;;;;;;;;;;;7.20;99.90;;;;;;5064427;28;20264;-71
2020/12/17 12:51:07;;;;;;;;;;;7.10;99.90;;;;;;5065226;28;19917;-69
2020/12/17 12:53:33;;;;;;;;;;;7.00;99.90;;;;;;5065171;28;19951;-70
2020/12/17 12:55:58;;;;;;;;;;;7.10;99.90;;;;;;5064984;28;20038;-69
2020/12/17 12:58:24;;;;;;;;;;;7.20;99.90;;;;;;5064845;28;19913;-72
2020/12/17 13:00:50;;;;;;;;;;;7.30;99.90;;;;;;5067814;28;19968;-72
2020/12/17 13:03:16;;;;;;;;;;;7.50;99.90;;;;;;5064542;28;20270;-70
2020/12/17 13:05:41;;;;;;;;;;;7.60;99.90;;;;;;5065077;28;19996;-70
2020/12/17 13:08:07;;;;;;;;;;;7.70;99.90;;;;;;5065615;28;19962;-67
2020/12/17 13:10:36;;;;;;;;;;;7.70;99.90;;;;;;5064757;28;19924;-72
2020/12/17 13:13:02;;;;;;;;;;;7.80;99.90;;;;;;5066605;28;20506;-70
2020/12/17 13:15:27;;;;;;;;;;;7.80;99.90;;;;;;5068687;28;19916;-70
2020/12/17 13:17:53;;;;;;;;;;;7.70;99.90;;;;;;5067472;28;21012;-71
2020/12/17 13:20:18;;;;;;;;;;;7.70;99.90;;;;;;5078139;28;19912;-70
2020/12/17 13:22:44;;;;;;;;;;;7.50;99.90;;;;;;5071423;28;20389;-71
2020/12/17 13:25:09;;;;;;;;;;;7.60;99.90;;;;;;5068458;28;19912;-69
2020/12/17 13:27:35;;;;;;;;;;;7.60;99.90;;;;;;5068371;28;19969;-70
2020/12/17 13:30:00;;;;;;;;;;;7.50;99.90;;;;;;5070258;28;19916;-69
2020/12/17 13:32:27;;;;;;;;;;;7.40;99.90;;;;;;5067283;28;20465;-69
2020/12/17 13:34:53;;;;;;;;;;;7.40;99.90;;;;;;5083126;28;19912;-68
2020/12/17 13:37:19;;;;;;;;;;;7.40;99.90;;;;;;5070819;28;19924;-68
2020/12/17 13:39:44;;;;;;;;;;;7.30;99.90;;;;;;5067205;28;20367;-70
2020/12/17 13:42:10;;;;;;;;;;;7.20;99.90;;;;;;5069947;28;19916;-68
2020/12/17 13:44:35;;;;;;;;;;;7.20;99.90;;;;;;5068452;28;19912;-68
2020/12/17 13:47:01;;;;;;;;;;;7.20;99.90;;;;;;5066113;28;20400;-69
2020/12/17 13:49:26;;;;;;;;;;;7.30;99.90;;;;;;5068058;28;19966;-70
2020/12/17 13:51:52;;;;;;;;;;;7.50;99.90;;;;;;5068606;28;19908;-68
2020/12/17 13:54:17;;;;;;;;;;;7.60;99.90;;;;;;5067739;28;19912;-70
2020/12/17 13:56:43;;;;;;;;;;;7.50;99.90;;;;;;5068020;28;19920;-68
2020/12/17 13:59:08;;;;;;;;;;;7.50;99.90;;;;;;5068352;28;19921;-68
2020/12/17 14:01:34;;;;;;;;;;;7.40;99.90;;;;;;5065903;28;19921;-68
2020/12/17 14:04:00;;;;;;;;;;;7.40;99.90;;;;;;5068788;28;19932;-68
2020/12/17 14:06:28;;;;;;;;;;;7.30;99.90;;;;;;5068545;28;19908;-70
2020/12/17 14:08:54;;;;;;;;;;;7.20;99.90;;;;;;5067220;28;20020;-68
2020/12/17 14:11:19;;;;;;;;;;;7.00;99.90;;;;;;5067303;28;20037;-71
2020/12/17 14:13:45;;;;;;;;;;;6.90;99.90;;;;;;5067326;28;19920;-68
2020/12/17 14:16:14;;;;;;;;;;;6.80;99.90;;;;;;5066536;28;19917;-69
2020/12/17 14:18:49;;;;;;;;;;;6.70;99.90;;;;;;5067659;28;19916;-70
2020/12/17 14:21:21;;;;;;;;;;;6.70;99.90;;;;;;5060904;28;19912;-67
2020/12/17 14:23:46;;;;;;;;;;;6.80;99.90;;;;;;5066280;28;20058;-72
2020/12/17 14:26:17;;;;;;;;;;;6.80;99.90;;;;;;5066634;28;20007;-68
2020/12/17 14:28:43;;;;;;;;;;;6.90;99.90;;;;;;5067838;28;20455;-67